Rechercher aéroport 
image banner adimage banner adimage banner ad
image banner ad

15CL - Hunt Farms

Situé à Merced, United States

ICAO - 15CL, IATA -

Données fournies par Airmate  

Information générale

Coordonnées: N37°20'34" W120°24'13"
Élévation : 223 feet MSL.
Variation magnétique : 15° East
Voir autres Aéroports à California

Données opérationnelles

Special qualification required
Heure actuelle UTC:
Heure actuelle locale:
Météo à : KMCE - Merced Rgnl/Macready Field ( 12 km )
METAR: KMCE 292153Z AUTO 34007KT 10SM CLR 38/15 A2982 RMK AO2 SLP095 T03830150
TAF: KMCE 291729Z 2918/3018 29008KT P6SM SCT250
Voir NOTAMs / SUP AIP / TFR affectant cet aéroport [VIEW]
Fréquences de communication: [VIEW]

Pistes:

Identifiant RWYQFULongueur (ft)Largeur (ft)SurfaceLDA (ft)
16230050EARTH
34230050EARTH

Coordonnées de l'aéroport

Adresse: Merced United States

Vue satellite de 15CL